St Pierre — FIDX — position and weather

sailwx.info

Track history (hours):
 
Tides and Currents Weather Stations Pressure Air Temp Water Temp Dewpoint Dewpoint Depression Visibility Wind Speed Wind Dir Waves Ship Positions

St Pierre

Last reported at 2017-Mar-30 14:33 UTC. Time now 2017-Mar-30 14:48 UTC.
Position N 47°10' W 002°19'.

Length 84 m; draft 5.7 m.

Type: Cargo ship. MMSI: 228024800.

Date/timePositionNaut miles runAvg speedWind from/ knotsBaromVisibWave heightAir tempDewpointWater temp
2017-Mar-30 14:33N 47°10' W 002°19'4 4.2
2017-Mar-30 13:33N 47°06' W 002°22'0 0.1
2017-Mar-30 12:33N 47°06' W 002°22'0 0.3
2017-Mar-30 11:33N 47°06' W 002°22'7 7.1
2017-Mar-30 10:33N 47°12' W 002°17'1211.5
2017-Mar-30 09:33N 47°18' W 002°03'1212.3
2017-Mar-30 08:33N 47°13' W 001°47'6 6.1
2017-Mar-30 07:33N 47°12' W 001°38'0 0.0
2017-Mar-30 06:33N 47°12' W 001°38'1 0.8
2017-Mar-30 05:33N 47°11' W 001°39'1110.7
2017-Mar-30 04:34N 47°16' W 001°53'1111.2
2017-Mar-30 03:33N 47°17' W 002°09'1212.0
2017-Mar-30 02:33N 47°08' W 002°20'3 2.6
2017-Mar-30 01:33N 47°06' W 002°22'0 0.3
2017-Mar-30 00:34N 47°05' W 002°23'1 1.1
2017-Mar-29 23:33N 47°06' W 002°21'1312.9
2017-Mar-29 22:34N 47°17' W 002°11'1312.8
2017-Mar-29 21:34N 47°16' W 001°52'1010.2
2017-Mar-29 20:33N 47°12' W 001°38'0 0.0
2017-Mar-29 19:33N 47°12' W 001°38'0 0.0
2017-Mar-29 18:33N 47°12' W 001°38'8 7.9
2017-Mar-29 17:32N 47°13' W 001°49'1110.8
2017-Mar-29 16:33N 47°18' W 002°04'1111.3
2017-Mar-29 15:33N 47°12' W 002°17'8 7.5
2017-Mar-29 14:33N 47°05' W 002°21'0 0.3
2017-Mar-29 13:33N 47°05' W 002°22'0 0.0
2017-Mar-29 12:33N 47°05' W 002°22'2 2.1
2017-Mar-29 11:33N 47°06' W 002°24'1212.0
2017-Mar-29 10:33N 47°12' W 002°39'1211.8
2017-Mar-29 09:32N 47°18' W 002°55'1111.3
2017-Mar-29 08:33N 47°24' W 003°08'1111.3
2017-Mar-29 07:33N 47°34' W 003°17'1110.5
2017-Mar-29 06:33N 47°44' W 003°21'1 1.3
2017-Mar-29 05:33N 47°45' W 003°19'0 0.0
2017-Mar-29 04:33N 47°45' W 003°19'1 1.2
2017-Mar-29 03:33N 47°44' W 003°21'5 4.6
2017-Mar-29 02:33N 47°40' W 003°24'4 4.3
2017-Mar-29 01:33N 47°37' W 003°19'4 4.4
2017-Mar-29 00:33N 47°33' W 003°16'4 4.4
2017-Mar-28 23:33N 47°29' W 003°13'5 4.7
2017-Mar-28 22:33N 47°25' W 003°11'6 5.7
2017-Mar-28 21:33N 47°22' W 003°04'6 6.4
2017-Mar-28 20:33N 47°18' W 002°56'7 6.6
2017-Mar-28 19:33N 47°15' W 002°47'7 6.8
2017-Mar-28 18:33N 47°12' W 002°39'7 6.6
2017-Mar-28 17:33N 47°08' W 002°30'7 6.7
2017-Mar-28 16:33N 47°05' W 002°22'0 0.2
2017-Mar-28 15:32N 47°05' W 002°22'0 0.0
2017-Mar-28 14:33N 47°05' W 002°22'0 0.1
2017-Mar-28 13:33N 47°05' W 002°21'8 7.7
2017-Mar-28 12:29N 47°12' W 002°17'9 9.3
2017-Mar-28 11:32N 47°18' W 002°07'1211.9
2017-Mar-28 10:33N 47°14' W 001°50'10 8.0
2017-Mar-28 09:20N 47°12' W 001°37'0 0.0
2017-Mar-28 08:33N 47°12' W 001°37'0 0.0
2017-Mar-28 07:33N 47°12' W 001°37'0 0.0
2017-Mar-28 06:33N 47°12' W 001°37'0 0.0
2017-Mar-28 05:33N 47°12' W 001°37'0 0.0
2017-Mar-28 04:33N 47°12' W 001°37'0 0.0
2017-Mar-28 03:33N 47°12' W 001°37'0 0.0
2017-Mar-28 02:33N 47°12' W 001°37'0 0.0
2017-Mar-28 01:33N 47°12' W 001°37'0 0.0
2017-Mar-28 00:33N 47°12' W 001°37'0 0.0
2017-Mar-27 23:33N 47°12' W 001°37'0 0.0
2017-Mar-27 22:33N 47°12' W 001°37'0 0.0
2017-Mar-27 21:33N 47°12' W 001°37'0 0.0
2017-Mar-27 20:33N 47°12' W 001°37'0 0.0
2017-Mar-27 19:33N 47°12' W 001°37'0 0.0
2017-Mar-27 18:33N 47°12' W 001°37'0 0.0
2017-Mar-27 17:33N 47°12' W 001°37'0 0.0
2017-Mar-27 16:33N 47°12' W 001°37'0 0.0
2017-Mar-27 15:33N 47°12' W 001°37'0 0.0
2017-Mar-27 14:33N 47°12' W 001°37'0 0.0
2017-Mar-27 13:33N 47°12' W 001°37'0 0.0
2017-Mar-27 12:33N 47°12' W 001°37'0 0.0
2017-Mar-27 11:31N 47°12' W 001°37'0 0.0
2017-Mar-27 10:22N 47°12' W 001°37'0 0.0
2017-Mar-27 09:25N 47°12' W 001°37'0 0.0
2017-Mar-27 08:33N 47°12' W 001°37'0 0.0
2017-Mar-27 07:33N 47°12' W 001°37'0 0.0
2017-Mar-27 06:33N 47°12' W 001°37'0 0.0
2017-Mar-27 05:33N 47°12' W 001°37'0 0.0
2017-Mar-27 04:33N 47°12' W 001°37'0 0.0
2017-Mar-27 03:33N 47°12' W 001°37'0 0.0
2017-Mar-27 02:33N 47°12' W 001°37'0 0.0
2017-Mar-27 01:33N 47°12' W 001°37'0 0.0
2017-Mar-27 00:33N 47°12' W 001°37'0 0.0
2017-Mar-26 23:33N 47°12' W 001°37'0 0.0
2017-Mar-26 22:33N 47°12' W 001°37'0 0.0
2017-Mar-26 21:33N 47°12' W 001°37'0 0.0
2017-Mar-26 20:33N 47°12' W 001°37'0 0.0
2017-Mar-26 19:33N 47°12' W 001°37'0 0.0
2017-Mar-26 18:33N 47°12' W 001°37'0 0.0
2017-Mar-26 17:33N 47°12' W 001°37'0 0.0
2017-Mar-26 16:33N 47°12' W 001°37'0 0.0
2017-Mar-26 15:33N 47°12' W 001°37'0 0.0
2017-Mar-26 14:33N 47°12' W 001°37'0 0.0
2017-Mar-26 13:33N 47°12' W 001°37'0 0.0
2017-Mar-26 12:33N 47°12' W 001°37'0 0.0
2017-Mar-26 11:33N 47°12' W 001°37'0 0.0
2017-Mar-26 10:33N 47°12' W 001°37'0 0.0
2017-Mar-26 09:33N 47°12' W 001°37'0 0.0
2017-Mar-26 08:33N 47°12' W 001°37'0 0.0
2017-Mar-26 07:33N 47°12' W 001°37'0 0.0
2017-Mar-26 06:33N 47°12' W 001°37'0 0.0
2017-Mar-26 05:33N 47°12' W 001°37'0 0.0
2017-Mar-26 04:33N 47°12' W 001°37'0 0.0
2017-Mar-26 03:33N 47°12' W 001°37'0 0.0
2017-Mar-26 02:33N 47°12' W 001°37'0 0.0
2017-Mar-26 01:33N 47°12' W 001°37'0 0.0
2017-Mar-26 00:33N 47°12' W 001°37'0 0.0
2017-Mar-25 23:33N 47°12' W 001°37'0 0.0
2017-Mar-25 22:33N 47°12' W 001°37'0 0.0
2017-Mar-25 21:33N 47°12' W 001°37'0 0.0
2017-Mar-25 20:33N 47°12' W 001°37'0 0.0
2017-Mar-25 19:33N 47°12' W 001°37'0 0.0
2017-Mar-25 18:33N 47°12' W 001°37'0 0.0
2017-Mar-25 17:33N 47°12' W 001°37'0 0.0
2017-Mar-25 16:33N 47°12' W 001°37'0 0.0
2017-Mar-25 15:33N 47°12' W 001°37'0 0.0
2017-Mar-25 14:33N 47°12' W 001°37'0 0.0
2017-Mar-25 13:33N 47°12' W 001°37'0 0.0
2017-Mar-25 12:33N 47°12' W 001°37'0 0.0
2017-Mar-25 11:33N 47°12' W 001°37'0 0.0
2017-Mar-25 10:33N 47°12' W 001°37'0 0.0
2017-Mar-25 09:33N 47°12' W 001°37'0 0.0
2017-Mar-25 08:33N 47°12' W 001°37'0 0.0
2017-Mar-25 07:33N 47°12' W 001°37'0 0.0
2017-Mar-25 06:33N 47°12' W 001°37'0 0.0
2017-Mar-25 05:33N 47°12' W 001°37'0 0.0
2017-Mar-25 04:33N 47°12' W 001°37'0 0.0
2017-Mar-25 03:29N 47°12' W 001°37'0 0.0
2017-Mar-25 02:33N 47°12' W 001°37'0 0.0
2017-Mar-25 01:33N 47°12' W 001°37'0 0.0
2017-Mar-25 00:33N 47°12' W 001°37'0 0.0
2017-Mar-24 23:33N 47°12' W 001°37'0 0.0
2017-Mar-24 22:33N 47°12' W 001°37'0 0.0
2017-Mar-24 21:33N 47°12' W 001°37'0 0.0
2017-Mar-24 20:33N 47°12' W 001°37'0 0.0
2017-Mar-24 19:33N 47°12' W 001°37'0 0.0
2017-Mar-24 18:33N 47°12' W 001°37'0 0.0
2017-Mar-24 17:33N 47°12' W 001°37'0 0.0
2017-Mar-24 16:33N 47°12' W 001°37'1 0.8
2017-Mar-24 15:33N 47°12' W 001°38'0 0.0
2017-Mar-24 14:32N 47°12' W 001°38'0 0.0
2017-Mar-24 13:33N 47°12' W 001°38'4 4.1
2017-Mar-24 12:33N 47°12' W 001°44'10 9.5
2017-Mar-24 11:33N 47°17' W 001°56'10 9.7
2017-Mar-24 10:31N 47°16' W 002°11'1110.9
2017-Mar-24 09:33N 47°08' W 002°20'3 3.0
2017-Mar-24 08:33N 47°05' W 002°22'0 0.1
2017-Mar-24 07:33N 47°05' W 002°22'0 0.0
2017-Mar-24 06:33N 47°05' W 002°22'1 1.0
2017-Mar-24 05:33N 47°06' W 002°22'1212.3
2017-Mar-24 04:33N 47°16' W 002°11'1211.6
2017-Mar-24 03:33N 47°17' W 001°54'1110.9
2017-Mar-24 02:33N 47°12' W 001°40'1 1.5
2017-Mar-24 01:33N 47°12' W 001°38'0 0.0
2017-Mar-24 00:33N 47°12' W 001°38'0 0.0
2017-Mar-23 23:33N 47°12' W 001°38'0 0.0
2017-Mar-23 22:33N 47°12' W 001°38'0 0.0
2017-Mar-23 21:33N 47°12' W 001°38'0 0.0
2017-Mar-23 20:33N 47°12' W 001°38'0 0.0
2017-Mar-23 19:33N 47°12' W 001°38'0 0.0
2017-Mar-23 18:33N 47°12' W 001°38'0 0.0
2017-Mar-23 17:33N 47°12' W 001°38'0 0.0
2017-Mar-23 16:33N 47°12' W 001°38'0 0.0
2017-Mar-23 15:33N 47°12' W 001°38'0 0.0
2017-Mar-23 14:33N 47°12' W 001°38'0 0.0
2017-Mar-23 13:33N 47°12' W 001°38'0 0.0
2017-Mar-23 12:33N 47°12' W 001°38'0 0.0
2017-Mar-23 11:33N 47°12' W 001°38'1 0.7
2017-Mar-23 10:33N 47°11' W 001°39'9 9.2
2017-Mar-23 09:33N 47°16' W 001°51'10 9.9
2017-Mar-23 08:33N 47°18' W 002°05'1010.2
2017-Mar-23 07:33N 47°12' W 002°17'8 7.7
2017-Mar-23 06:33N 47°05' W 002°21'0 0.4
2017-Mar-23 05:33N 47°05' W 002°21'0 0.1
2017-Mar-23 04:33N 47°05' W 002°22'0 0.1
2017-Mar-23 03:33N 47°05' W 002°22'9 9.1
2017-Mar-23 02:33N 47°13' W 002°16'1110.7
2017-Mar-23 01:33N 47°18' W 002°02'1111.2
2017-Mar-23 00:33N 47°13' W 001°48'7 6.7
2017-Mar-22 23:33N 47°12' W 001°38'0 0.0
2017-Mar-22 22:33N 47°12' W 001°38'0 0.0
2017-Mar-22 21:33N 47°12' W 001°38'8 7.6
2017-Mar-22 20:33N 47°13' W 001°49'10 9.8
2017-Mar-22 19:33N 47°18' W 002°01'10 9.7
2017-Mar-22 18:33N 47°14' W 002°15'1010.0
2017-Mar-22 17:33N 47°06' W 002°22'0 0.4
2017-Mar-22 16:33N 47°06' W 002°22'0 0.2
2017-Mar-22 15:33N 47°06' W 002°22'9 9.4
2017-Mar-22 14:33N 47°14' W 002°16'1010.4
2017-Mar-22 13:33N 47°18' W 002°01'1111.3
2017-Mar-22 12:33N 47°12' W 001°46'6 5.9
2017-Mar-22 11:33N 47°12' W 001°38'0 0.0
2017-Mar-22 10:24N 47°12' W 001°38'2 2.9
2017-Mar-22 09:33N 47°12' W 001°41'10 9.5
2017-Mar-22 08:33N 47°17' W 001°54'1010.5
2017-Mar-22 07:33N 47°18' W 002°09'1010.0
2017-Mar-22 06:33N 47°10' W 002°19'6 5.5
2017-Mar-22 05:33N 47°05' W 002°22'0 0.1
2017-Mar-22 04:33N 47°05' W 002°22'0 0.4
2017-Mar-22 03:33N 47°05' W 002°21'0 0.4
2017-Mar-22 02:33N 47°05' W 002°22'7 6.7
2017-Mar-22 01:33N 47°11' W 002°18'1111.5
2017-Mar-22 00:33N 47°18' W 002°05'1111.3
2017-Mar-21 23:33N 47°13' W 001°49'8 8.1
2017-Mar-21 22:33N 47°12' W 001°38'0 0.0
2017-Mar-21 21:33N 47°12' W 001°38'0 0.1
2017-Mar-21 20:33N 47°12' W 001°38'9 9.3
2017-Mar-21 19:33N 47°15' W 001°51'1010.4
2017-Mar-21 18:33N 47°18' W 002°05'10 9.9
2017-Mar-21 17:33N 47°12' W 002°17'7 7.3
2017-Mar-21 16:33N 47°06' W 002°22'0 0.1
2017-Mar-21 15:33N 47°06' W 002°22'0 0.3
2017-Mar-21 14:33N 47°06' W 002°22'8 7.2
2017-Mar-21 13:25N 47°13' W 002°17'910.5
2017-Mar-21 12:33N 47°18' W 002°06'1010.0
2017-Mar-21 11:33N 47°16' W 001°52'10 9.9
2017-Mar-21 10:33N 47°12' W 001°38'1 1.0
2017-Mar-21 09:33N 47°12' W 001°37'0 0.0
2017-Mar-21 08:33N 47°12' W 001°37'0 0.0
2017-Mar-21 07:33N 47°12' W 001°37'0 0.0
2017-Mar-21 06:33N 47°12' W 001°37'0 0.0
2017-Mar-21 05:33N 47°12' W 001°37'0 0.0
2017-Mar-21 04:33N 47°12' W 001°37'0 0.0
2017-Mar-21 03:33N 47°12' W 001°37'0 0.0
2017-Mar-21 02:33N 47°12' W 001°37'0 0.0
2017-Mar-21 01:33N 47°12' W 001°37'0 0.0
2017-Mar-21 00:33N 47°12' W 001°37'0 0.0
2017-Mar-20 23:33N 47°12' W 001°37'0 0.0
2017-Mar-20 22:33N 47°12' W 001°37'0 0.0
2017-Mar-20 21:33N 47°12' W 001°37'0 0.0
2017-Mar-20 20:33N 47°12' W 001°37'0 0.0
2017-Mar-20 19:33N 47°12' W 001°37'0 0.0
2017-Mar-20 18:33N 47°12' W 001°37'0 0.0
2017-Mar-20 17:33N 47°12' W 001°37'0 0.0
2017-Mar-20 16:33N 47°12' W 001°37'0 0.0
2017-Mar-20 15:33N 47°12' W 001°37'0 0.0
2017-Mar-20 14:33N 47°12' W 001°37'  
Track history (hours):
 
Tides and Currents Weather Stations Pressure Air Temp Water Temp Dewpoint Dewpoint Depression Visibility Wind Speed Wind Dir Waves Ship Positions

St Pierre

Last reported at 2017-Mar-30 14:33 UTC. Time now 2017-Mar-30 14:48 UTC.
Position N 47°10' W 002°19'.

Length 84 m; draft 5.7 m.

Type: Cargo ship. MMSI: 228024800.

Date/timePositionNaut miles runAvg speedWind from/ knotsBaromVisibWave heightAir tempDewpointWater temp
2017-Mar-30 14:33N 47°10' W 002°19'4 4.2
2017-Mar-30 13:33N 47°06' W 002°22'0 0.1
2017-Mar-30 12:33N 47°06' W 002°22'0 0.3
2017-Mar-30 11:33N 47°06' W 002°22'7 7.1
2017-Mar-30 10:33N 47°12' W 002°17'1211.5
2017-Mar-30 09:33N 47°18' W 002°03'1212.3
2017-Mar-30 08:33N 47°13' W 001°47'6 6.1
2017-Mar-30 07:33N 47°12' W 001°38'0 0.0
2017-Mar-30 06:33N 47°12' W 001°38'1 0.8
2017-Mar-30 05:33N 47°11' W 001°39'1110.7
2017-Mar-30 04:34N 47°16' W 001°53'1111.2
2017-Mar-30 03:33N 47°17' W 002°09'1212.0
2017-Mar-30 02:33N 47°08' W 002°20'3 2.6
2017-Mar-30 01:33N 47°06' W 002°22'0 0.3
2017-Mar-30 00:34N 47°05' W 002°23'1 1.1
2017-Mar-29 23:33N 47°06' W 002°21'1312.9
2017-Mar-29 22:34N 47°17' W 002°11'1312.8
2017-Mar-29 21:34N 47°16' W 001°52'1010.2
2017-Mar-29 20:33N 47°12' W 001°38'0 0.0
2017-Mar-29 19:33N 47°12' W 001°38'0 0.0
2017-Mar-29 18:33N 47°12' W 001°38'8 7.9
2017-Mar-29 17:32N 47°13' W 001°49'1110.8
2017-Mar-29 16:33N 47°18' W 002°04'1111.3
2017-Mar-29 15:33N 47°12' W 002°17'8 7.5
2017-Mar-29 14:33N 47°05' W 002°21'0 0.3
2017-Mar-29 13:33N 47°05' W 002°22'0 0.0
2017-Mar-29 12:33N 47°05' W 002°22'2 2.1
2017-Mar-29 11:33N 47°06' W 002°24'1212.0
2017-Mar-29 10:33N 47°12' W 002°39'1211.8
2017-Mar-29 09:32N 47°18' W 002°55'1111.3
2017-Mar-29 08:33N 47°24' W 003°08'1111.3
2017-Mar-29 07:33N 47°34' W 003°17'1110.5
2017-Mar-29 06:33N 47°44' W 003°21'1 1.3
2017-Mar-29 05:33N 47°45' W 003°19'0 0.0
2017-Mar-29 04:33N 47°45' W 003°19'1 1.2
2017-Mar-29 03:33N 47°44' W 003°21'5 4.6
2017-Mar-29 02:33N 47°40' W 003°24'4 4.3
2017-Mar-29 01:33N 47°37' W 003°19'4 4.4
2017-Mar-29 00:33N 47°33' W 003°16'4 4.4
2017-Mar-28 23:33N 47°29' W 003°13'5 4.7
2017-Mar-28 22:33N 47°25' W 003°11'6 5.7
2017-Mar-28 21:33N 47°22' W 003°04'6 6.4
2017-Mar-28 20:33N 47°18' W 002°56'7 6.6
2017-Mar-28 19:33N 47°15' W 002°47'7 6.8
2017-Mar-28 18:33N 47°12' W 002°39'7 6.6
2017-Mar-28 17:33N 47°08' W 002°30'7 6.7
2017-Mar-28 16:33N 47°05' W 002°22'0 0.2
2017-Mar-28 15:32N 47°05' W 002°22'0 0.0
2017-Mar-28 14:33N 47°05' W 002°22'0 0.1
2017-Mar-28 13:33N 47°05' W 002°21'8 7.7
2017-Mar-28 12:29N 47°12' W 002°17'9 9.3
2017-Mar-28 11:32N 47°18' W 002°07'1211.9
2017-Mar-28 10:33N 47°14' W 001°50'10 8.0
2017-Mar-28 09:20N 47°12' W 001°37'0 0.0
2017-Mar-28 08:33N 47°12' W 001°37'0 0.0
2017-Mar-28 07:33N 47°12' W 001°37'0 0.0
2017-Mar-28 06:33N 47°12' W 001°37'0 0.0
2017-Mar-28 05:33N 47°12' W 001°37'0 0.0
2017-Mar-28 04:33N 47°12' W 001°37'0 0.0
2017-Mar-28 03:33N 47°12' W 001°37'0 0.0
2017-Mar-28 02:33N 47°12' W 001°37'0 0.0
2017-Mar-28 01:33N 47°12' W 001°37'0 0.0
2017-Mar-28 00:33N 47°12' W 001°37'0 0.0
2017-Mar-27 23:33N 47°12' W 001°37'0 0.0
2017-Mar-27 22:33N 47°12' W 001°37'0 0.0
2017-Mar-27 21:33N 47°12' W 001°37'0 0.0
2017-Mar-27 20:33N 47°12' W 001°37'0 0.0
2017-Mar-27 19:33N 47°12' W 001°37'0 0.0
2017-Mar-27 18:33N 47°12' W 001°37'0 0.0
2017-Mar-27 17:33N 47°12' W 001°37'0 0.0
2017-Mar-27 16:33N 47°12' W 001°37'0 0.0
2017-Mar-27 15:33N 47°12' W 001°37'0 0.0
2017-Mar-27 14:33N 47°12' W 001°37'0 0.0
2017-Mar-27 13:33N 47°12' W 001°37'0 0.0
2017-Mar-27 12:33N 47°12' W 001°37'0 0.0
2017-Mar-27 11:31N 47°12' W 001°37'0 0.0
2017-Mar-27 10:22N 47°12' W 001°37'0 0.0
2017-Mar-27 09:25N 47°12' W 001°37'0 0.0
2017-Mar-27 08:33N 47°12' W 001°37'0 0.0
2017-Mar-27 07:33N 47°12' W 001°37'0 0.0
2017-Mar-27 06:33N 47°12' W 001°37'0 0.0
2017-Mar-27 05:33N 47°12' W 001°37'0 0.0
2017-Mar-27 04:33N 47°12' W 001°37'0 0.0
2017-Mar-27 03:33N 47°12' W 001°37'0 0.0
2017-Mar-27 02:33N 47°12' W 001°37'0 0.0
2017-Mar-27 01:33N 47°12' W 001°37'0 0.0
2017-Mar-27 00:33N 47°12' W 001°37'0 0.0
2017-Mar-26 23:33N 47°12' W 001°37'0 0.0
2017-Mar-26 22:33N 47°12' W 001°37'0 0.0
2017-Mar-26 21:33N 47°12' W 001°37'0 0.0
2017-Mar-26 20:33N 47°12' W 001°37'0 0.0
2017-Mar-26 19:33N 47°12' W 001°37'0 0.0
2017-Mar-26 18:33N 47°12' W 001°37'0 0.0
2017-Mar-26 17:33N 47°12' W 001°37'0 0.0
2017-Mar-26 16:33N 47°12' W 001°37'0 0.0
2017-Mar-26 15:33N 47°12' W 001°37'0 0.0
2017-Mar-26 14:33N 47°12' W 001°37'0 0.0
2017-Mar-26 13:33N 47°12' W 001°37'0 0.0
2017-Mar-26 12:33N 47°12' W 001°37'0 0.0
2017-Mar-26 11:33N 47°12' W 001°37'0 0.0
2017-Mar-26 10:33N 47°12' W 001°37'0 0.0
2017-Mar-26 09:33N 47°12' W 001°37'0 0.0
2017-Mar-26 08:33N 47°12' W 001°37'0 0.0
2017-Mar-26 07:33N 47°12' W 001°37'0 0.0
2017-Mar-26 06:33N 47°12' W 001°37'0 0.0
2017-Mar-26 05:33N 47°12' W 001°37'0 0.0
2017-Mar-26 04:33N 47°12' W 001°37'0 0.0
2017-Mar-26 03:33N 47°12' W 001°37'0 0.0
2017-Mar-26 02:33N 47°12' W 001°37'0 0.0
2017-Mar-26 01:33N 47°12' W 001°37'0 0.0
2017-Mar-26 00:33N 47°12' W 001°37'0 0.0
2017-Mar-25 23:33N 47°12' W 001°37'0 0.0
2017-Mar-25 22:33N 47°12' W 001°37'0 0.0
2017-Mar-25 21:33N 47°12' W 001°37'0 0.0
2017-Mar-25 20:33N 47°12' W 001°37'0 0.0
2017-Mar-25 19:33N 47°12' W 001°37'0 0.0
2017-Mar-25 18:33N 47°12' W 001°37'0 0.0
2017-Mar-25 17:33N 47°12' W 001°37'0 0.0
2017-Mar-25 16:33N 47°12' W 001°37'0 0.0
2017-Mar-25 15:33N 47°12' W 001°37'0 0.0
2017-Mar-25 14:33N 47°12' W 001°37'0 0.0
2017-Mar-25 13:33N 47°12' W 001°37'0 0.0
2017-Mar-25 12:33N 47°12' W 001°37'0 0.0
2017-Mar-25 11:33N 47°12' W 001°37'0 0.0
2017-Mar-25 10:33N 47°12' W 001°37'0 0.0
2017-Mar-25 09:33N 47°12' W 001°37'0 0.0
2017-Mar-25 08:33N 47°12' W 001°37'0 0.0
2017-Mar-25 07:33N 47°12' W 001°37'0 0.0
2017-Mar-25 06:33N 47°12' W 001°37'0 0.0
2017-Mar-25 05:33N 47°12' W 001°37'0 0.0
2017-Mar-25 04:33N 47°12' W 001°37'0 0.0
2017-Mar-25 03:29N 47°12' W 001°37'0 0.0
2017-Mar-25 02:33N 47°12' W 001°37'0 0.0
2017-Mar-25 01:33N 47°12' W 001°37'0 0.0
2017-Mar-25 00:33N 47°12' W 001°37'0 0.0
2017-Mar-24 23:33N 47°12' W 001°37'0 0.0
2017-Mar-24 22:33N 47°12' W 001°37'0 0.0
2017-Mar-24 21:33N 47°12' W 001°37'0 0.0
2017-Mar-24 20:33N 47°12' W 001°37'0 0.0
2017-Mar-24 19:33N 47°12' W 001°37'0 0.0
2017-Mar-24 18:33N 47°12' W 001°37'0 0.0
2017-Mar-24 17:33N 47°12' W 001°37'0 0.0
2017-Mar-24 16:33N 47°12' W 001°37'1 0.8
2017-Mar-24 15:33N 47°12' W 001°38'0 0.0
2017-Mar-24 14:32N 47°12' W 001°38'0 0.0
2017-Mar-24 13:33N 47°12' W 001°38'4 4.1
2017-Mar-24 12:33N 47°12' W 001°44'10 9.5
2017-Mar-24 11:33N 47°17' W 001°56'10 9.7
2017-Mar-24 10:31N 47°16' W 002°11'1110.9
2017-Mar-24 09:33N 47°08' W 002°20'3 3.0
2017-Mar-24 08:33N 47°05' W 002°22'0 0.1
2017-Mar-24 07:33N 47°05' W 002°22'0 0.0
2017-Mar-24 06:33N 47°05' W 002°22'1 1.0
2017-Mar-24 05:33N 47°06' W 002°22'1212.3
2017-Mar-24 04:33N 47°16' W 002°11'1211.6
2017-Mar-24 03:33N 47°17' W 001°54'1110.9
2017-Mar-24 02:33N 47°12' W 001°40'1 1.5
2017-Mar-24 01:33N 47°12' W 001°38'0 0.0
2017-Mar-24 00:33N 47°12' W 001°38'0 0.0
2017-Mar-23 23:33N 47°12' W 001°38'0 0.0
2017-Mar-23 22:33N 47°12' W 001°38'0 0.0
2017-Mar-23 21:33N 47°12' W 001°38'0 0.0
2017-Mar-23 20:33N 47°12' W 001°38'0 0.0
2017-Mar-23 19:33N 47°12' W 001°38'0 0.0
2017-Mar-23 18:33N 47°12' W 001°38'0 0.0
2017-Mar-23 17:33N 47°12' W 001°38'0 0.0
2017-Mar-23 16:33N 47°12' W 001°38'0 0.0
2017-Mar-23 15:33N 47°12' W 001°38'0 0.0
2017-Mar-23 14:33N 47°12' W 001°38'0 0.0
2017-Mar-23 13:33N 47°12' W 001°38'0 0.0
2017-Mar-23 12:33N 47°12' W 001°38'0 0.0
2017-Mar-23 11:33N 47°12' W 001°38'1 0.7
2017-Mar-23 10:33N 47°11' W 001°39'9 9.2
2017-Mar-23 09:33N 47°16' W 001°51'10 9.9
2017-Mar-23 08:33N 47°18' W 002°05'1010.2
2017-Mar-23 07:33N 47°12' W 002°17'8 7.7
2017-Mar-23 06:33N 47°05' W 002°21'0 0.4
2017-Mar-23 05:33N 47°05' W 002°21'0 0.1
2017-Mar-23 04:33N 47°05' W 002°22'0 0.1
2017-Mar-23 03:33N 47°05' W 002°22'9 9.1
2017-Mar-23 02:33N 47°13' W 002°16'1110.7
2017-Mar-23 01:33N 47°18' W 002°02'1111.2
2017-Mar-23 00:33N 47°13' W 001°48'7 6.7
2017-Mar-22 23:33N 47°12' W 001°38'0 0.0
2017-Mar-22 22:33N 47°12' W 001°38'0 0.0
2017-Mar-22 21:33N 47°12' W 001°38'8 7.6
2017-Mar-22 20:33N 47°13' W 001°49'10 9.8
2017-Mar-22 19:33N 47°18' W 002°01'10 9.7
2017-Mar-22 18:33N 47°14' W 002°15'1010.0
2017-Mar-22 17:33N 47°06' W 002°22'0 0.4
2017-Mar-22 16:33N 47°06' W 002°22'0 0.2
2017-Mar-22 15:33N 47°06' W 002°22'9 9.4
2017-Mar-22 14:33N 47°14' W 002°16'1010.4
2017-Mar-22 13:33N 47°18' W 002°01'1111.3
2017-Mar-22 12:33N 47°12' W 001°46'6 5.9
2017-Mar-22 11:33N 47°12' W 001°38'0 0.0
2017-Mar-22 10:24N 47°12' W 001°38'2 2.9
2017-Mar-22 09:33N 47°12' W 001°41'10 9.5
2017-Mar-22 08:33N 47°17' W 001°54'1010.5
2017-Mar-22 07:33N 47°18' W 002°09'1010.0
2017-Mar-22 06:33N 47°10' W 002°19'6 5.5
2017-Mar-22 05:33N 47°05' W 002°22'0 0.1
2017-Mar-22 04:33N 47°05' W 002°22'0 0.4
2017-Mar-22 03:33N 47°05' W 002°21'0 0.4
2017-Mar-22 02:33N 47°05' W 002°22'7 6.7
2017-Mar-22 01:33N 47°11' W 002°18'1111.5
2017-Mar-22 00:33N 47°18' W 002°05'1111.3
2017-Mar-21 23:33N 47°13' W 001°49'8 8.1
2017-Mar-21 22:33N 47°12' W 001°38'0 0.0
2017-Mar-21 21:33N 47°12' W 001°38'0 0.1
2017-Mar-21 20:33N 47°12' W 001°38'9 9.3
2017-Mar-21 19:33N 47°15' W 001°51'1010.4
2017-Mar-21 18:33N 47°18' W 002°05'10 9.9
2017-Mar-21 17:33N 47°12' W 002°17'7 7.3
2017-Mar-21 16:33N 47°06' W 002°22'0 0.1
2017-Mar-21 15:33N 47°06' W 002°22'0 0.3
2017-Mar-21 14:33N 47°06' W 002°22'8 7.2
2017-Mar-21 13:25N 47°13' W 002°17'910.5
2017-Mar-21 12:33N 47°18' W 002°06'1010.0
2017-Mar-21 11:33N 47°16' W 001°52'10 9.9
2017-Mar-21 10:33N 47°12' W 001°38'1 1.0
2017-Mar-21 09:33N 47°12' W 001°37'0 0.0
2017-Mar-21 08:33N 47°12' W 001°37'0 0.0
2017-Mar-21 07:33N 47°12' W 001°37'0 0.0
2017-Mar-21 06:33N 47°12' W 001°37'0 0.0
2017-Mar-21 05:33N 47°12' W 001°37'0 0.0
2017-Mar-21 04:33N 47°12' W 001°37'0 0.0
2017-Mar-21 03:33N 47°12' W 001°37'0 0.0
2017-Mar-21 02:33N 47°12' W 001°37'0 0.0
2017-Mar-21 01:33N 47°12' W 001°37'0 0.0
2017-Mar-21 00:33N 47°12' W 001°37'0 0.0
2017-Mar-20 23:33N 47°12' W 001°37'0 0.0
2017-Mar-20 22:33N 47°12' W 001°37'0 0.0
2017-Mar-20 21:33N 47°12' W 001°37'0 0.0
2017-Mar-20 20:33N 47°12' W 001°37'0 0.0
2017-Mar-20 19:33N 47°12' W 001°37'0 0.0
2017-Mar-20 18:33N 47°12' W 001°37'0 0.0
2017-Mar-20 17:33N 47°12' W 001°37'0 0.0
2017-Mar-20 16:33N 47°12' W 001°37'0 0.0
2017-Mar-20 15:33N 47°12' W 001°37'0 0.0
2017-Mar-20 14:33N 47°12' W 001°37'  

Dump ship's entire track history